Tumwater, Washington
Current Conditions -  °F | °C
As of 9:54 AM on Thursday 23 Oct 2014 (Local Time) from KOLM Reporting Station
Overcast Overcast  
Wind Chill: 51°   Ceiling: 4000
Heat Index: 51°   Visibility: 10mi
Dew Point: 49°   Wind: 5mph
Humidity: 92%   Direction: 260°W
Pressure: 29.79"   Gusts: NA
Location:  47.038°N, 122.899°W
Report Text: KOLM 231654Z 26004KT 10SM FEW005 BKN040 OVC065 11/09 A2979 RMK AO2 RAE25 SLP088 P0000 T01060094 $
Loading
Personal Weather Stations






























Interactive Weather Map
Tropical Storm Tracking
New forecast layout! Learn more

10-Day Weather Forecast

Advertisements
Track Severe Weather on mobile